Time;durP1;ratioP1;P1;durP2;ratioP2;P2;SDS_P1;SDS_P2;PMS_P1;PMS_P2;Temp;Humidity;BMP_temperature;BMP_pressure;BME280_temperature;BME280_humidity;BME280_pressure;Samples;Min_cycle;Max_cycle;Signal;HPM_P1;HPM_P2
2022/03/20 00:00:55;;;;;;;6.63;2.78;;;;;;;-3.87;61.89;96709.16;5086600;28;20206;-78
2022/03/20 00:03:23;;;;;;;16.73;7.78;;;;;;;-3.94;61.75;96708.25;5089406;28;20212;-80
2022/03/20 00:05:51;;;;;;;13.88;8.07;;;;;;;-4.05;62.07;96706.09;5086069;28;20202;-79
2022/03/20 00:08:19;;;;;;;17.13;8.23;;;;;;;-4.05;62.36;96704.25;5087420;28;20232;-80
2022/03/20 00:10:48;;;;;;;11.55;7.15;;;;;;;-3.97;61.59;96706.00;5082988;28;20226;-78
2022/03/20 00:13:17;;;;;;;10.05;5.45;;;;;;;-4.01;61.79;96710.84;5091860;28;20239;-78
2022/03/20 00:15:46;;;;;;;9.80;5.97;;;;;;;-4.06;61.81;96705.25;5063806;28;20932;-77
2022/03/20 00:18:15;;;;;;;14.05;6.50;;;;;;;-4.04;61.70;96705.06;5074699;28;20237;-78
2022/03/20 00:20:43;;;;;;;14.38;6.00;;;;;;;-4.03;62.08;96704.06;5093928;28;20604;-77
2022/03/20 00:23:12;;;;;;;12.25;5.78;;;;;;;-3.95;61.62;96711.91;5075881;28;20677;-77
2022/03/20 00:25:39;;;;;;;3.35;1.77;;;;;;;-4.01;62.43;96712.66;5086050;28;20251;-77
2022/03/20 00:28:08;;;;;;;5.22;2.55;;;;;;;-4.10;62.32;96708.47;5079978;28;20585;-77
2022/03/20 00:30:35;;;;;;;4.50;2.85;;;;;;;-4.14;62.52;96712.50;5081412;28;20210;-77
2022/03/20 00:33:02;;;;;;;6.47;2.25;;;;;;;-4.17;62.56;96702.28;5087373;28;20293;-77
2022/03/20 00:35:30;;;;;;;4.20;2.55;;;;;;;-4.11;62.75;96706.84;5086580;28;20327;-78
2022/03/20 00:37:57;;;;;;;3.58;2.08;;;;;;;-4.13;62.66;96708.84;5080280;28;20553;-77
2022/03/20 00:40:24;;;;;;;3.40;1.90;;;;;;;-4.21;62.66;96701.00;5093787;28;20226;-79
2022/03/20 00:42:51;;;;;;;4.00;1.98;;;;;;;-4.18;63.24;96705.91;5079937;28;20203;-77
2022/03/20 00:45:19;;;;;;;4.88;3.25;;;;;;;-4.16;63.12;96699.44;5080859;28;20233;-77
2022/03/20 00:47:48;;;;;;;5.15;2.03;;;;;;;-4.28;63.62;96705.38;5067140;28;20206;-77
2022/03/20 00:50:15;;;;;;;16.67;4.78;;;;;;;-4.35;63.60;96711.41;5079196;28;20246;-78
2022/03/20 00:52:42;;;;;;;7.57;3.58;;;;;;;-4.33;63.73;96693.53;5079614;28;20198;-78
2022/03/20 00:55:10;;;;;;;7.40;4.03;;;;;;;-4.35;64.22;96698.16;5079762;28;20203;-77
2022/03/20 00:57:37;;;;;;;4.88;3.22;;;;;;;-4.50;64.63;96697.34;5086278;28;20245;-78
2022/03/20 01:00:04;;;;;;;2.97;2.03;;;;;;;-4.48;64.24;96700.63;5086647;28;20238;-78
2022/03/20 01:02:38;;;;;;;6.05;3.05;;;;;;;-4.53;64.28;96703.03;5080720;28;20227;-78
2022/03/20 01:05:06;;;;;;;14.77;7.85;;;;;;;-4.56;65.34;96690.16;5079049;28;20651;-78
2022/03/20 01:07:33;;;;;;;14.15;7.70;;;;;;;-4.54;65.02;96682.88;5083610;28;20277;-77
2022/03/20 01:10:01;;;;;;;7.85;3.60;;;;;;;-4.45;64.94;96697.63;5086123;28;20323;-78
2022/03/20 01:12:28;;;;;;;7.18;3.40;;;;;;;-4.42;64.40;96697.28;5082234;28;20230;-78
2022/03/20 01:14:56;;;;;;;13.38;4.25;;;;;;;-4.45;64.84;96694.16;5079700;28;20209;-78
2022/03/20 01:17:23;;;;;;;3.38;2.05;;;;;;;-4.43;64.90;96698.28;5083029;28;20214;-78
2022/03/20 01:19:52;;;;;;;13.15;7.38;;;;;;;-4.52;65.72;96702.03;5086624;28;20254;-79
2022/03/20 01:22:18;;;;;;;3.92;2.35;;;;;;;-4.50;65.31;96696.53;5082700;28;20206;-79
2022/03/20 01:24:46;;;;;;;12.15;6.63;;;;;;;-4.51;65.36;96698.34;5091757;28;20228;-80
2022/03/20 01:27:13;;;;;;;11.85;6.45;;;;;;;-4.61;65.75;96700.47;5082355;28;20230;-80
2022/03/20 01:29:40;;;;;;;16.92;8.48;;;;;;;-4.65;65.81;96701.84;5085747;28;20231;-80
2022/03/20 01:32:08;;;;;;;20.55;9.15;;;;;;;-4.65;66.56;96683.34;5083335;28;20226;-79
2022/03/20 01:34:38;;;;;;;14.40;7.63;;;;;;;-4.74;66.83;96687.03;5079418;28;20209;-79
2022/03/20 01:37:07;;;;;;;13.65;8.38;;;;;;;-4.75;66.82;96686.22;5080838;28;20194;-79
2022/03/20 01:39:34;;;;;;;13.07;7.35;;;;;;;-4.73;67.37;96686.06;5085799;28;20712;-78
2022/03/20 01:42:01;;;;;;;16.35;7.28;;;;;;;-4.70;68.37;96698.91;5072277;28;20276;-79
2022/03/20 01:44:32;;;;;;;5.10;3.20;;;;;;;-4.72;67.96;96698.28;5086287;28;20199;-79
2022/03/20 01:46:59;;;;;;;6.15;2.72;;;;;;;-4.71;68.83;96705.19;5085560;28;20605;-79
2022/03/20 01:49:26;;;;;;;4.55;2.42;;;;;;;-4.62;69.02;96704.09;5079491;28;20234;-79
2022/03/20 01:54:39;;;;;;;4.38;2.75;;;;;;;-4.31;68.36;96717.16;5082619;28;20280;-79
2022/03/20 01:57:07;;;;;;;3.92;2.47;;;;;;;-4.37;69.66;96712.56;5075160;28;20238;-79
2022/03/20 01:59:34;;;;;;;7.85;3.58;;;;;;;-4.50;68.85;96697.34;5081620;28;20226;-79
2022/03/20 02:02:03;;;;;;;10.30;4.47;;;;;;;-4.63;68.62;96713.03;5085180;28;20285;-79
2022/03/20 02:04:30;;;;;;;5.07;3.05;;;;;;;-4.63;68.29;96713.03;5083000;28;20230;-79
2022/03/20 02:06:57;;;;;;;7.45;3.10;;;;;;;-4.72;69.53;96716.78;5078737;28;20226;-79
2022/03/20 02:09:24;;;;;;;8.18;3.92;;;;;;;-4.72;70.40;96706.19;5080715;28;20215;-79
2022/03/20 02:11:53;;;;;;;7.47;4.15;;;;;;;-4.57;70.70;96707.03;5085333;28;20231;-79
2022/03/20 02:14:20;;;;;;;9.13;3.97;;;;;;;-4.65;71.32;96704.50;5083941;28;20218;-79
2022/03/20 02:16:48;;;;;;;5.72;3.15;;;;;;;-4.46;70.33;96706.56;5078473;28;20319;-79
2022/03/20 02:19:15;;;;;;;9.80;4.10;;;;;;;-4.73;69.21;96707.19;5079828;28;20312;-79
2022/03/20 02:21:44;;;;;;;9.63;3.90;;;;;;;-4.89;69.33;96704.72;5085589;28;20271;-79
2022/03/20 02:24:48;;;;;;;13.68;5.70;;;;;;;-4.86;69.89;96707.00;5071596;28;20198;-78
2022/03/20 02:27:18;;;;;;;12.68;5.03;;;;;;;-4.64;71.40;96700.81;4980498;28;20269;-78
2022/03/20 02:29:48;;;;;;;12.52;5.20;;;;;;;-4.53;70.52;96695.09;4975950;28;20224;-78
2022/03/20 02:32:17;;;;;;;12.65;4.43;;;;;;;-4.44;70.63;96695.81;5018970;28;20211;-78
2022/03/20 02:34:46;;;;;;;8.65;4.43;;;;;;;-4.39;69.55;96701.38;5084224;28;20207;-78
2022/03/20 02:37:15;;;;;;;11.60;4.75;;;;;;;-4.40;69.10;96700.56;5084844;28;20230;-79
2022/03/20 02:39:42;;;;;;;6.10;3.47;;;;;;;-4.35;71.59;96706.09;5065055;28;20226;-78
2022/03/20 02:42:13;;;;;;;15.65;6.05;;;;;;;-4.18;72.00;96695.34;5078109;28;20588;-78
2022/03/20 02:44:55;;;;;;;27.95;11.20;;;;;;;-4.22;70.38;96694.06;5083629;28;20222;-78
2022/03/20 02:47:24;;;;;;;23.42;10.10;;;;;;;-4.24;69.84;96696.09;5084800;28;20307;-78
2022/03/20 02:49:54;;;;;;;8.95;4.25;;;;;;;-4.19;70.06;96683.09;5081633;28;20269;-79
2022/03/20 02:52:25;;;;;;;16.15;6.45;;;;;;;-4.06;70.22;96688.56;5077989;28;20226;-79
2022/03/20 02:54:52;;;;;;;10.70;4.63;;;;;;;-4.00;69.92;96688.66;5079941;28;20223;-79
2022/03/20 02:57:20;;;;;;;8.30;5.28;;;;;;;-4.06;69.22;96686.72;5084339;28;20605;-78
2022/03/20 02:59:47;;;;;;;13.88;5.97;;;;;;;-4.00;69.78;96693.13;5083553;28;20225;-78
2022/03/20 03:02:14;;;;;;;7.00;3.17;;;;;;;-4.57;69.36;96690.34;5085417;28;20703;-78
2022/03/20 03:04:42;;;;;;;5.75;3.63;;;;;;;-4.93;70.41;96706.09;5083795;28;20661;-79
2022/03/20 03:07:09;;;;;;;9.75;4.80;;;;;;;-5.13;71.90;96693.38;5077252;28;20572;-78
2022/03/20 03:12:22;;;;;;;12.13;4.15;;;;;;;-5.10;73.34;96695.66;5068535;28;20229;-79
2022/03/20 03:17:34;;;;;;;8.00;4.07;;;;;;;-4.85;72.41;96684.84;5079479;28;20217;-78
2022/03/20 03:20:02;;;;;;;8.75;3.53;;;;;;;-4.59;74.63;96687.88;5084447;28;20226;-78
2022/03/20 03:22:28;;;;;;;6.70;3.72;;;;;;;-4.35;74.36;96700.81;5083644;28;20206;-79
2022/03/20 03:24:57;;;;;;;4.78;3.00;;;;;;;-4.29;71.15;96693.97;5077365;28;20198;-78
2022/03/20 03:27:24;;;;;;;8.48;4.50;;;;;;;-4.24;72.59;96693.44;5077678;28;20227;-80
2022/03/20 03:29:51;;;;;;;7.10;3.63;;;;;;;-4.18;71.67;96695.34;5084137;28;20223;-79
2022/03/20 03:32:18;;;;;;;9.30;5.22;;;;;;;-4.21;71.39;96690.41;5083187;28;20218;-78
2022/03/20 03:37:32;;;;;;;11.00;4.65;;;;;;;-4.22;69.57;96699.34;5082732;28;20294;-79
2022/03/20 03:40:01;;;;;;;10.50;3.10;;;;;;;-4.44;70.32;96701.94;5060444;28;20227;-78
2022/03/20 03:42:28;;;;;;;6.95;3.78;;;;;;;-4.58;71.20;96704.56;5076185;28;20245;-79
2022/03/20 03:44:55;;;;;;;5.22;3.05;;;;;;;-4.47;70.22;96702.28;5072426;28;20223;-80
2022/03/20 03:47:24;;;;;;;6.90;4.10;;;;;;;-4.48;69.54;96703.28;5066708;28;20202;-79
2022/03/20 03:49:52;;;;;;;6.80;3.67;;;;;;;-4.77;69.97;96711.19;5080966;28;20291;-78
2022/03/20 03:52:19;;;;;;;6.50;3.03;;;;;;;-4.45;72.88;96707.41;5086565;28;20607;-78
2022/03/20 03:54:46;;;;;;;8.43;4.38;;;;;;;-4.14;71.85;96702.72;5081966;28;20198;-79
2022/03/20 03:57:15;;;;;;;11.57;4.35;;;;;;;-4.59;70.37;96714.31;5077537;28;20230;-78
2022/03/20 03:59:42;;;;;;;11.23;3.92;;;;;;;-4.84;71.43;96705.00;5079034;28;20253;-78
2022/03/20 04:02:08;;;;;;;11.18;4.90;;;;;;;-4.64;70.71;96706.09;5084862;28;20223;-81
2022/03/20 04:04:35;;;;;;;10.15;5.10;;;;;;;-4.89;71.25;96715.28;5082554;28;20288;-80
2022/03/20 04:07:03;;;;;;;9.05;4.82;;;;;;;-5.10;72.16;96716.81;5072060;28;20205;-81
2022/03/20 04:09:31;;;;;;;6.53;4.18;;;;;;;-4.79;76.03;96697.38;5083095;28;20198;-80
2022/03/20 04:11:58;;;;;;;10.52;4.40;;;;;;;-4.51;72.19;96701.00;5076513;28;20218;-78
2022/03/20 04:14:27;;;;;;;9.68;4.65;;;;;;;-4.87;71.24;96706.19;5077927;28;20200;-78
2022/03/20 04:16:54;;;;;;;12.05;5.40;;;;;;;-5.13;70.96;96711.03;5083766;28;20207;-78
2022/03/20 04:19:21;;;;;;;6.50;3.88;;;;;;;-5.18;72.11;96708.94;5083524;28;20539;-79
2022/03/20 04:21:49;;;;;;;8.73;3.35;;;;;;;-4.99;72.25;96706.78;5064236;28;20227;-79
2022/03/20 04:24:16;;;;;;;11.00;4.47;;;;;;;-4.96;72.47;96706.44;5077377;28;20267;-78
2022/03/20 04:26:44;;;;;;;12.65;5.40;;;;;;;-4.99;72.21;96709.44;5050247;28;20227;-79
2022/03/20 04:29:11;;;;;;;8.98;5.13;;;;;;;-4.87;72.81;96705.34;5081101;28;20218;-79
2022/03/20 04:31:40;;;;;;;16.45;6.25;;;;;;;-4.61;72.16;96700.47;5073756;28;20206;-79
2022/03/20 04:34:07;;;;;;;12.50;5.43;;;;;;;-4.33;72.13;96708.56;5087270;28;20198;-79
2022/03/20 04:36:34;;;;;;;13.98;4.65;;;;;;;-4.24;69.83;96702.19;5081898;28;20210;-79
2022/03/20 04:39:03;;;;;;;11.23;6.00;;;;;;;-4.42;71.77;96709.69;5080456;28;20559;-79
2022/03/20 04:41:31;;;;;;;14.20;6.10;;;;;;;-4.42;72.50;96715.78;5085150;28;20702;-79
2022/03/20 04:43:59;;;;;;;14.05;5.93;;;;;;;-4.32;72.25;96718.97;5075770;28;20223;-79
2022/03/20 04:46:26;;;;;;;10.65;5.88;;;;;;;-4.15;70.88;96716.13;5083889;28;20199;-79
2022/03/20 04:59:53;;;;;;;9.75;4.60;;;;;;;-0.34;58.70;96695.31;5080693;28;20229;-79
2022/03/20 05:02:20;;;;;;;10.98;5.72;;;;;;;-0.54;59.15;96703.31;5086474;28;20196;-79
2022/03/20 05:04:48;;;;;;;14.15;7.28;;;;;;;0.61;56.54;96691.06;5086126;28;20195;-79
2022/03/20 05:07:16;;;;;;;10.32;5.90;;;;;;;1.57;54.15;96688.06;5081656;28;20227;-80
2022/03/20 05:15:12;;;;;;;13.27;5.53;;;;;;;3.21;49.58;96682.47;5063171;28;20193;-80
2022/03/20 05:17:41;;;;;;;11.95;5.88;;;;;;;3.32;49.18;96684.34;5080468;28;20543;-81
2022/03/20 05:20:11;;;;;;;17.83;5.93;;;;;;;3.31;47.78;96688.06;5085952;28;20253;-81
2022/03/20 05:22:40;;;;;;;8.85;4.68;;;;;;;3.94;46.80;96690.09;5085302;28;20569;-78
2022/03/20 05:25:09;;;;;;;13.13;6.25;;;;;;;3.95;46.49;96689.03;5065781;28;20210;-82
2022/03/20 05:27:37;;;;;;;12.20;6.72;;;;;;;4.41;43.58;96684.63;5078971;28;20281;-80
2022/03/20 05:30:07;;;;;;;15.20;7.63;;;;;;;4.03;44.14;96690.53;5085558;28;20218;-83
2022/03/20 05:32:35;;;;;;;8.05;5.68;;;;;;;4.88;42.19;96696.81;5086200;28;20194;-82
2022/03/20 05:35:05;;;;;;;11.82;7.43;;;;;;;3.28;44.79;96699.25;5081414;28;20202;-85
2022/03/20 05:37:33;;;;;;;17.48;7.97;;;;;;;4.02;49.20;96700.44;5071631;28;20294;-77
2022/03/20 05:40:00;;;;;;;16.92;8.90;;;;;;;4.63;55.80;96694.47;5073081;28;20199;-77
2022/03/20 05:42:27;;;;;;;16.40;7.93;;;;;;;5.29;44.69;96694.84;5077752;28;20217;-82
2022/03/20 05:44:54;;;;;;;19.10;7.78;;;;;;;4.71;43.15;96701.31;5082419;28;20214;-82
2022/03/20 05:47:22;;;;;;;15.93;7.40;;;;;;;5.03;42.04;96703.53;5085912;28;20207;-80
2022/03/20 05:49:49;;;;;;;14.38;6.60;;;;;;;5.56;40.46;96703.91;5061612;28;20301;-80
2022/03/20 05:52:16;;;;;;;13.82;7.57;;;;;;;5.34;41.46;96705.69;5072139;28;20569;-80
2022/03/20 05:54:44;;;;;;;16.05;8.25;;;;;;;5.04;41.00;96705.97;5092452;28;20555;-80
2022/03/20 05:59:56;;;;;;;18.67;8.52;;;;;;;5.72;40.34;96708.47;5079450;28;20202;-78
2022/03/20 06:02:23;;;;;;;15.05;8.35;;;;;;;6.48;38.55;96697.16;5092363;28;20225;-79
2022/03/20 06:04:51;;;;;;;11.90;7.55;;;;;;;7.53;37.60;96691.25;5079265;28;20211;-79
2022/03/20 06:07:18;;;;;;;16.45;8.35;;;;;;;7.70;37.40;96702.72;5065273;28;20693;-79
2022/03/20 06:09:46;;;;;;;13.88;7.30;;;;;;;7.72;36.99;96695.19;5077887;28;20203;-79
2022/03/20 06:12:13;;;;;;;16.65;8.20;;;;;;;7.54;36.49;96702.84;5051795;28;20222;-81
2022/03/20 06:14:40;;;;;;;14.40;7.80;;;;;;;8.19;35.25;96695.25;5079524;28;20214;-82
2022/03/20 06:17:09;;;;;;;15.40;7.95;;;;;;;8.72;33.82;96692.53;5079265;28;20538;-77
2022/03/20 06:19:38;;;;;;;17.50;8.93;;;;;;;8.23;34.51;96698.19;5090942;28;20232;-79
2022/03/20 06:22:05;;;;;;;15.23;7.88;;;;;;;7.73;36.19;96704.91;5063484;28;20228;-81
2022/03/20 06:24:33;;;;;;;14.32;7.85;;;;;;;8.15;35.18;96698.72;5080497;28;20195;-83
2022/03/20 06:27:02;;;;;;;13.25;7.50;;;;;;;8.42;34.46;96702.13;5080599;28;20249;-78
2022/03/20 06:29:29;;;;;;;20.48;10.75;;;;;;;8.61;34.09;96697.06;5075944;28;20364;-79
2022/03/20 06:31:56;;;;;;;17.15;11.02;;;;;;;8.20;34.25;96701.41;5082043;28;20658;-78
2022/03/20 06:34:23;;;;;;;16.38;10.18;;;;;;;8.63;33.33;96699.50;5074292;28;20677;-80
2022/03/20 06:36:50;;;;;;;16.05;10.38;;;;;;;7.27;34.96;96713.66;5082053;28;20209;-79
2022/03/20 06:39:17;;;;;;;19.95;10.48;;;;;;;7.09;36.27;96714.84;5087786;28;20202;-79
2022/03/20 06:41:44;;;;;;;19.33;10.73;;;;;;;7.88;34.50;96708.78;5080802;28;20226;-83
2022/03/20 06:44:15;;;;;;;12.65;8.02;;;;;;;6.94;34.61;96718.19;5075580;28;20207;-82
2022/03/20 06:46:42;;;;;;;15.73;7.80;;;;;;;8.76;32.63;96705.22;5083329;28;20230;-85
2022/03/20 06:49:10;;;;;;;12.30;6.93;;;;;;;7.59;33.74;96717.19;5076527;28;20739;-79
2022/03/20 06:51:37;;;;;;;14.65;7.07;;;;;;;7.41;33.65;96714.88;5079696;28;20641;-81
2022/03/20 06:54:07;;;;;;;14.70;7.15;;;;;;;5.96;34.59;96724.44;5085432;28;20631;-81
2022/03/20 06:56:33;;;;;;;10.85;5.93;;;;;;;5.89;35.45;96723.78;5071030;28;20617;-78
2022/03/20 06:59:00;;;;;;;11.75;6.18;;;;;;;5.57;35.21;96732.44;5084687;28;20320;-82
2022/03/20 07:01:30;;;;;;;11.82;6.82;;;;;;;5.80;35.96;96725.25;5083877;28;20741;-84
2022/03/20 07:03:57;;;;;;;12.95;7.25;;;;;;;4.81;36.61;96732.91;5077711;28;20220;-84
2022/03/20 07:06:26;;;;;;;11.90;4.70;;;;;;;4.40;37.23;96725.91;5077939;28;20226;-81
2022/03/20 07:08:58;;;;;;;8.52;3.92;;;;;;;4.09;37.80;96729.84;5091593;28;20761;-82
2022/03/20 07:11:32;;;;;;;5.63;3.72;;;;;;;4.07;38.77;96737.28;5077901;28;20226;-79
2022/03/20 07:14:00;;;;;;;13.05;4.35;;;;;;;4.58;37.53;96733.81;5081575;28;20202;-81
2022/03/20 07:16:30;;;;;;;10.90;5.45;;;;;;;4.44;37.50;96724.41;5084945;28;20191;-81
2022/03/20 07:18:57;;;;;;;7.00;3.85;;;;;;;4.65;38.09;96734.47;5071640;28;20207;-83
2022/03/20 07:21:25;;;;;;;5.50;2.80;;;;;;;4.18;37.24;96745.31;5083748;28;20321;-81
2022/03/20 07:23:54;;;;;;;2.60;1.83;;;;;;;3.04;39.17;96740.41;5070946;28;20197;-78
2022/03/20 07:31:51;;;;;;;5.43;3.20;;;;;;;3.01;40.68;96738.16;5061692;28;20206;-83
2022/03/20 07:34:18;;;;;;;6.38;3.38;;;;;;;3.37;39.87;96740.75;5056665;28;20264;-81
2022/03/20 07:36:45;;;;;;;5.60;3.33;;;;;;;2.37;40.02;96742.31;5082096;28;20199;-82
2022/03/20 07:39:12;;;;;;;6.97;3.08;;;;;;;2.23;41.59;96740.81;5084807;28;20221;-82
2022/03/20 07:41:40;;;;;;;6.78;3.00;;;;;;;1.88;41.86;96737.91;5070337;28;20229;-82
2022/03/20 07:44:07;;;;;;;6.93;3.58;;;;;;;1.82;42.54;96742.28;5073935;28;20312;-81
2022/03/20 07:46:36;;;;;;;5.78;2.80;;;;;;;2.22;41.88;96744.53;5091245;28;20546;-82
2022/03/20 07:49:04;;;;;;;2.80;2.03;;;;;;;1.68;42.57;96746.09;5086977;28;20673;-82
2022/03/20 07:51:32;;;;;;;8.10;3.78;;;;;;;1.44;42.66;96750.41;5081288;28;20292;-82
2022/03/20 07:53:59;;;;;;;4.30;2.10;;;;;;;2.14;41.96;96727.75;5086760;28;20665;-82
2022/03/20 07:56:28;;;;;;;7.57;3.20;;;;;;;2.01;41.91;96727.91;5081157;28;20214;-78
2022/03/20 07:58:55;;;;;;;7.50;3.80;;;;;;;1.92;42.65;96728.41;5066888;28;20891;-84
2022/03/20 08:01:22;;;;;;;6.20;2.90;;;;;;;1.69;42.47;96726.38;5073492;28;20317;-81
2022/03/20 08:03:49;;;;;;;7.97;4.07;;;;;;;1.96;42.37;96725.06;5079852;28;20202;-83
2022/03/20 08:06:18;;;;;;;3.53;2.90;;;;;;;2.37;42.31;96718.25;5093261;28;20222;-79
2022/03/20 08:08:45;;;;;;;5.38;3.30;;;;;;;2.18;42.10;96713.97;5079851;28;20198;-82
2022/03/20 08:11:12;;;;;;;4.35;2.92;;;;;;;2.55;40.67;96720.91;5081732;28;20218;-81
2022/03/20 08:13:40;;;;;;;3.40;2.08;;;;;;;2.29;41.31;96714.03;5087447;28;20234;-81
2022/03/20 08:16:09;;;;;;;5.07;2.85;;;;;;;2.08;40.76;96728.63;5073930;28;20199;-79
2022/03/20 08:18:37;;;;;;;6.60;3.20;;;;;;;1.84;42.41;96716.16;5079647;28;20206;-79
2022/03/20 08:21:05;;;;;;;6.20;3.15;;;;;;;2.28;41.12;96696.34;5080547;28;20229;-82
2022/03/20 08:23:33;;;;;;;6.50;3.38;;;;;;;2.49;40.28;96703.06;5073767;28;20936;-80
2022/03/20 08:26:00;;;;;;;10.02;4.97;;;;;;;1.93;40.96;96701.44;5073634;28;20242;-77
2022/03/20 08:28:27;;;;;;;7.03;4.18;;;;;;;2.31;39.16;96695.09;5086688;28;20226;-81
2022/03/20 08:30:54;;;;;;;5.65;3.15;;;;;;;2.20;41.26;96682.44;5075288;28;20203;-82
2022/03/20 08:33:21;;;;;;;2.15;1.55;;;;;;;1.95;40.30;96690.53;5071523;28;20662;-79
2022/03/20 08:35:48;;;;;;;8.38;3.00;;;;;;;1.90;41.13;96693.09;5071537;28;20195;-82
2022/03/20 08:38:14;;;;;;;6.97;3.30;;;;;;;2.33;41.31;96683.09;5072128;28;20198;-80
2022/03/20 08:40:43;;;;;;;15.23;4.90;;;;;;;3.02;41.23;96680.91;5071963;28;20199;-78
2022/03/20 08:43:15;;;;;;;6.60;3.33;;;;;;;3.20;40.37;96678.97;5072338;28;20234;-81
2022/03/20 08:45:42;;;;;;;9.93;3.65;;;;;;;2.99;38.83;96681.38;5072813;28;20198;-81
2022/03/20 08:48:10;;;;;;;6.88;2.95;;;;;;;3.19;40.55;96674.66;5083781;28;20202;-78
2022/03/20 08:50:37;;;;;;;4.57;2.78;;;;;;;3.57;39.37;96668.88;5089635;28;20243;-81
2022/03/20 08:53:05;;;;;;;3.85;2.70;;;;;;;3.48;38.83;96664.91;5062827;28;20569;-79
2022/03/20 08:55:33;;;;;;;8.18;3.85;;;;;;;3.50;38.77;96667.38;5074497;28;20221;-85
2022/03/20 08:58:01;;;;;;;7.20;2.65;;;;;;;3.79;38.54;96665.63;5082599;28;20199;-80
2022/03/20 09:00:29;;;;;;;8.15;3.88;;;;;;;3.14;39.12;96668.38;5077747;28;20210;-76
2022/03/20 09:02:56;;;;;;;6.65;3.88;;;;;;;2.20;40.52;96669.88;5081693;28;20635;-81
2022/03/20 09:05:22;;;;;;;18.25;7.88;;;;;;;3.15;40.42;96659.28;5091003;28;20226;-78
2022/03/20 09:07:51;;;;;;;2.67;1.75;;;;;;;3.53;41.75;96651.66;5080801;28;20222;-81
2022/03/20 09:10:18;;;;;;;11.98;4.63;;;;;;;3.91;39.43;96653.84;5086092;28;20778;-77
2022/03/20 09:12:45;;;;;;;4.38;2.28;;;;;;;3.38;36.07;96667.38;5059009;28;20211;-77
2022/03/20 09:15:15;;;;;;;3.60;1.73;;;;;;;3.23;35.73;96648.25;5071662;28;20206;-81
2022/03/20 09:20:27;;;;;;;5.05;2.95;;;;;;;2.90;36.48;96650.63;5053598;28;20380;-81
2022/03/20 09:22:55;;;;;;;3.20;2.28;;;;;;;2.41;36.57;96664.09;5083360;28;20257;-83
2022/03/20 09:25:22;;;;;;;10.52;4.07;;;;;;;3.00;35.62;96638.34;5083447;28;20219;-86
2022/03/20 09:27:49;;;;;;;3.65;1.77;;;;;;;3.06;35.53;96652.66;5085928;28;20226;-76
2022/03/20 09:30:17;;;;;;;2.95;1.27;;;;;;;2.82;35.29;96638.41;5081227;28;20680;-80
2022/03/20 09:32:44;;;;;;;3.25;1.83;;;;;;;2.81;35.88;96632.22;5079167;28;20572;-79
2022/03/20 09:35:14;;;;;;;3.22;1.70;;;;;;;3.10;35.69;96630.53;5082380;28;20206;-82
2022/03/20 09:37:42;;;;;;;1.98;1.67;;;;;;;3.31;36.06;96625.66;5075966;28;20842;-78
2022/03/20 09:40:11;;;;;;;7.72;1.55;;;;;;;3.33;36.19;96623.56;5081873;28;20206;-76
2022/03/20 09:42:39;;;;;;;3.75;1.63;;;;;;;3.31;35.42;96613.06;5077514;28;20231;-79
2022/03/20 09:45:07;;;;;;;3.72;2.47;;;;;;;3.46;34.84;96618.78;5081107;28;20203;-77
2022/03/20 09:47:38;;;;;;;6.03;2.17;;;;;;;3.51;35.15;96616.22;5072189;28;20199;-82
2022/03/20 09:50:06;;;;;;;2.90;2.45;;;;;;;3.81;34.54;96612.59;5085082;28;20708;-82
2022/03/20 09:52:34;;;;;;;3.20;2.08;;;;;;;3.20;34.74;96609.34;5073788;28;20697;-89
2022/03/20 09:55:01;;;;;;;5.13;2.80;;;;;;;3.25;35.57;96602.50;5086612;28;20285;-83
2022/03/20 09:57:29;;;;;;;4.50;3.15;;;;;;;2.80;35.95;96622.56;5059998;28;20211;-74
2022/03/20 09:59:57;;;;;;;3.80;1.98;;;;;;;3.14;35.61;96604.13;5087588;28;20206;-79
2022/03/20 10:02:27;;;;;;;3.88;2.15;;;;;;;3.91;35.01;96599.41;5059954;28;20233;-79
2022/03/20 10:04:58;;;;;;;3.58;1.63;;;;;;;3.90;34.59;96603.94;5086316;28;20218;-76
2022/03/20 10:07:27;;;;;;;3.33;2.05;;;;;;;3.61;34.14;96630.91;5063431;28;20246;-84
2022/03/20 10:10:12;;;;;;;1.48;1.25;;;;;;;3.22;35.57;96601.09;5068707;28;20227;-78
2022/03/20 10:12:41;;;;;;;10.25;3.33;;;;;;;3.92;34.89;96601.03;5080680;28;20203;-77
2022/03/20 10:15:10;;;;;;;5.90;2.88;;;;;;;3.77;33.95;96598.03;5085199;28;20198;-81
2022/03/20 10:17:38;;;;;;;3.67;1.52;;;;;;;3.68;34.53;96594.09;5082962;28;20586;-78
2022/03/20 10:20:18;;;;;;;2.15;1.92;;;;;;;3.56;34.49;96591.41;5078045;28;20202;-81
2022/03/20 10:22:45;;;;;;;3.45;2.40;;;;;;;3.55;34.35;96579.88;5076668;28;20215;-75
2022/03/20 10:25:13;;;;;;;3.17;2.25;;;;;;;3.92;33.75;96584.94;5078863;28;20716;-82
2022/03/20 10:27:54;;;;;;;4.30;2.95;;;;;;;3.87;34.84;96582.16;5076548;28;20778;-84
2022/03/20 10:30:21;;;;;;;6.30;2.70;;;;;;;4.03;34.00;96586.78;5084624;28;20633;-84
2022/03/20 10:32:49;;;;;;;5.45;3.20;;;;;;;4.34;35.13;96576.63;5079347;28;20202;-88
2022/03/20 10:35:18;;;;;;;4.10;1.90;;;;;;;4.59;33.09;96577.91;5081154;28;20293;-82
2022/03/20 10:37:54;;;;;;;6.95;3.30;;;;;;;5.17;32.74;96570.53;5070489;28;20226;-84
2022/03/20 10:40:23;;;;;;;2.67;1.52;;;;;;;4.98;32.73;96567.28;5081381;28;20271;-79
2022/03/20 10:43:08;;;;;;;5.22;2.53;;;;;;;5.28;32.57;96558.88;5063309;28;20230;-79
2022/03/20 10:45:54;;;;;;;6.55;2.70;;;;;;;5.00;32.25;96574.03;5076929;28;20226;-78
2022/03/20 10:48:34;;;;;;;5.03;2.90;;;;;;;4.59;33.69;96564.50;5070962;28;20202;-84
2022/03/20 10:51:03;;;;;;;2.92;1.83;;;;;;;4.48;32.57;96572.59;5070377;28;20682;-79
2022/03/20 10:53:31;;;;;;;4.88;2.20;;;;;;;4.17;33.05;96560.47;5070843;28;20581;-81
2022/03/20 10:56:04;;;;;;;3.22;2.08;;;;;;;4.16;33.67;96566.91;5076723;28;20195;-84
2022/03/20 10:58:31;;;;;;;8.45;2.10;;;;;;;4.25;34.18;96563.59;5071644;28;20190;-78
2022/03/20 11:00:58;;;;;;;2.03;1.48;;;;;;;4.61;34.05;96550.81;5072714;28;20286;-87
2022/03/20 11:03:27;;;;;;;5.55;1.92;;;;;;;4.70;34.04;96560.09;5072535;28;20757;-78
2022/03/20 11:05:54;;;;;;;6.78;3.22;;;;;;;4.18;34.31;96552.19;5069909;28;20296;-78
2022/03/20 11:08:25;;;;;;;4.25;2.53;;;;;;;4.19;33.95;96548.47;5068500;28;20591;-79
2022/03/20 11:10:52;;;;;;;2.42;1.95;;;;;;;4.46;34.16;96547.88;5079332;28;20186;-77
2022/03/20 11:13:20;;;;;;;2.80;1.92;;;;;;;4.63;33.07;96544.16;5087796;28;20206;-77
2022/03/20 11:15:48;;;;;;;8.35;4.35;;;;;;;4.64;33.46;96539.63;5069624;28;20653;-78
2022/03/20 11:18:15;;;;;;;5.47;2.67;;;;;;;4.89;33.30;96531.16;5072052;28;20215;-79
2022/03/20 11:20:45;;;;;;;6.13;2.92;;;;;;;4.91;32.84;96537.91;5060359;28;20199;-80
2022/03/20 11:23:14;;;;;;;5.53;2.35;;;;;;;4.84;32.92;96517.63;5068535;28;20254;-79
2022/03/20 11:25:45;;;;;;;3.90;2.70;;;;;;;4.49;33.71;96531.31;5076504;28;20310;-81
2022/03/20 11:28:14;;;;;;;7.10;3.40;;;;;;;4.42;33.96;96531.44;5083605;28;20318;-82
2022/03/20 11:30:44;;;;;;;8.25;3.03;;;;;;;4.91;34.54;96524.50;5082037;28;20289;-79
2022/03/20 11:33:12;;;;;;;8.68;5.47;;;;;;;5.22;33.38;96514.19;5075897;28;20209;-79
2022/03/20 11:35:39;;;;;;;2.28;1.85;;;;;;;5.32;33.53;96509.78;5077219;28;20211;-77
2022/03/20 11:38:15;;;;;;;5.55;3.20;;;;;;;5.70;33.56;96500.88;5073740;28;20604;-78
2022/03/20 11:41:07;;;;;;;7.75;4.80;;;;;;;5.91;32.76;96509.19;5086071;28;20676;-79
2022/03/20 11:43:35;;;;;;;5.50;2.95;;;;;;;5.75;33.45;96507.34;5077657;28;20215;-81
2022/03/20 11:46:21;;;;;;;3.92;2.13;;;;;;;5.34;33.19;96507.63;5073734;28;20615;-81
2022/03/20 11:49:30;;;;;;;5.15;2.95;;;;;;;4.91;32.99;96503.00;5073319;28;20187;-79
2022/03/20 11:52:05;;;;;;;2.80;1.67;;;;;;;4.70;33.60;96519.84;5020184;28;20298;-78
2022/03/20 11:54:48;;;;;;;6.00;4.25;;;;;;;4.86;33.54;96500.22;5073071;28;20222;-78
2022/03/20 11:57:45;;;;;;;4.03;2.72;;;;;;;5.51;33.31;96483.41;5069658;28;20195;-77
2022/03/20 12:00:16;;;;;;;10.30;3.50;;;;;;;6.00;33.37;96483.47;5075869;28;20192;-77
2022/03/20 12:03:09;;;;;;;3.67;2.55;;;;;;;5.58;32.49;96497.50;5070473;28;20261;-72
2022/03/20 12:05:55;;;;;;;6.03;4.30;;;;;;;5.26;33.67;96483.06;5075787;28;20191;-76
2022/03/20 12:08:36;;;;;;;8.00;3.40;;;;;;;5.20;33.49;96489.44;5071076;28;20641;-76
2022/03/20 12:11:16;;;;;;;4.68;2.55;;;;;;;5.11;32.75;96485.53;5082698;28;20688;-80
2022/03/20 12:13:54;;;;;;;3.05;1.52;;;;;;;4.87;32.16;96491.13;5078532;28;20198;-81
2022/03/20 12:16:55;;;;;;;4.13;2.42;;;;;;;4.41;33.06;96491.44;5086703;28;20573;-82
2022/03/20 12:19:23;;;;;;;4.35;2.47;;;;;;;4.46;33.72;96483.47;5072892;28;20263;-81
2022/03/20 12:21:57;;;;;;;14.10;2.83;;;;;;;4.82;32.73;96477.59;5091612;28;20229;-77